createdAt,value
2018-11-01T00:00:30.646Z,4.50
2018-11-01T00:02:59.555Z,4.38
2018-11-01T00:05:28.526Z,4.40
2018-11-01T00:07:57.446Z,4.32
2018-11-01T00:10:26.227Z,3.61
2018-11-01T00:12:55.425Z,4.40
2018-11-01T00:15:24.953Z,4.26
2018-11-01T00:17:53.981Z,4.14
2018-11-01T00:20:22.857Z,4.25
2018-11-01T00:22:51.575Z,4.26
2018-11-01T00:25:20.905Z,4.32
2018-11-01T00:27:49.574Z,4.33
2018-11-01T00:30:18.631Z,4.31
2018-11-01T00:32:47.330Z,4.26
2018-11-01T00:35:16.302Z,4.28
2018-11-01T00:37:45.015Z,4.24
2018-11-01T00:40:14.777Z,4.19
2018-11-01T00:42:44.840Z,4.16
2018-11-01T00:45:13.822Z,4.18
2018-11-01T00:47:42.738Z,4.38
2018-11-01T00:50:13.972Z,4.63
2018-11-01T00:52:42.839Z,4.40
2018-11-01T00:55:12.804Z,4.36
2018-11-01T00:57:42.161Z,4.52
2018-11-01T01:00:13.244Z,4.31
2018-11-01T01:02:41.840Z,4.14
2018-11-01T01:05:11.473Z,4.03
2018-11-01T01:07:40.237Z,4.02
2018-11-01T01:10:12.549Z,4.05
2018-11-01T01:12:41.373Z,4.07
2018-11-01T01:15:10.491Z,4.04
2018-11-01T01:17:39.550Z,3.96
2018-11-01T01:20:10.814Z,3.87
2018-11-01T01:22:39.913Z,3.87
2018-11-01T01:25:10.438Z,3.89
2018-11-01T01:27:39.286Z,3.76
2018-11-01T01:30:13.098Z,3.66
2018-11-01T01:32:45.591Z,3.70
2018-11-01T01:35:14.894Z,3.74
2018-11-01T01:37:43.859Z,3.78
2018-11-01T01:40:12.759Z,3.72
2018-11-01T01:42:46.718Z,3.74
2018-11-01T01:45:15.751Z,4.01
2018-11-01T01:47:44.482Z,4.25
2018-11-01T01:50:15.437Z,4.36
2018-11-01T01:52:44.846Z,4.20
2018-11-01T01:55:13.857Z,4.13
2018-11-01T01:57:42.814Z,4.04
2018-11-01T02:00:13.865Z,4.00
2018-11-01T02:02:44.778Z,3.92
2018-11-01T02:05:13.316Z,3.94
2018-11-01T02:07:42.175Z,3.78
2018-11-01T02:10:16.171Z,3.84
2018-11-01T02:12:45.186Z,3.92
2018-11-01T02:15:21.398Z,3.94
2018-11-01T02:17:50.055Z,3.94
2018-11-01T02:20:20.019Z,3.88
2018-11-01T02:22:48.555Z,3.81
2018-11-01T02:25:17.364Z,3.83
2018-11-01T02:27:51.237Z,3.86
2018-11-01T02:30:20.164Z,3.88
2018-11-01T02:32:49.359Z,3.89
2018-11-01T02:35:19.287Z,3.94
2018-11-01T02:37:47.949Z,3.92
2018-11-01T02:40:17.154Z,3.93
2018-11-01T02:42:45.707Z,3.95
2018-11-01T02:45:14.963Z,3.94
2018-11-01T02:47:43.801Z,3.94
2018-11-01T02:50:13.594Z,3.88
2018-11-01T02:52:42.061Z,3.75
2018-11-01T02:55:11.318Z,3.78
2018-11-01T02:57:39.995Z,3.64
2018-11-01T03:00:11.460Z,3.54
2018-11-01T03:02:39.999Z,3.73
2018-11-01T03:05:09.414Z,3.74
2018-11-01T03:07:37.927Z,3.71
2018-11-01T03:10:08.131Z,3.74
2018-11-01T03:12:36.881Z,3.72
2018-11-01T03:15:06.749Z,3.65
2018-11-01T03:17:35.343Z,3.66
2018-11-01T03:20:04.339Z,3.65
2018-11-01T03:22:33.057Z,3.60
2018-11-01T03:25:01.661Z,3.51
2018-11-01T03:27:30.196Z,3.35
2018-11-01T03:29:59.212Z,3.34
2018-11-01T03:32:27.919Z,3.67
2018-11-01T03:34:56.850Z,3.71
2018-11-01T03:37:25.708Z,3.64
2018-11-01T03:39:54.384Z,3.45
2018-11-01T03:42:23.066Z,3.50
2018-11-01T03:44:51.684Z,3.62
2018-11-01T03:47:20.689Z,3.65
2018-11-01T03:49:49.516Z,3.96
2018-11-01T03:52:18.733Z,3.84
2018-11-01T03:54:47.560Z,3.79
2018-11-01T03:57:16.599Z,4.04
2018-11-01T03:59:45.124Z,3.83
2018-11-01T04:02:14.082Z,3.50
2018-11-01T04:04:42.686Z,3.57
2018-11-01T04:07:11.581Z,3.77
2018-11-01T04:09:40.459Z,3.76
2018-11-01T04:12:09.202Z,3.75
2018-11-01T04:14:38.046Z,3.70
2018-11-01T04:17:06.991Z,3.80
2018-11-01T04:19:35.952Z,4.18
2018-11-01T04:22:06.394Z,4.23
2018-11-01T04:24:36.823Z,4.50
2018-11-01T04:27:06.031Z,4.55
2018-11-01T04:29:35.870Z,4.82
2018-11-01T04:32:05.042Z,4.91
2018-11-01T04:34:33.740Z,4.97
2018-11-01T04:37:02.669Z,5.00
2018-11-01T04:39:31.508Z,4.89
2018-11-01T04:42:00.543Z,4.83
2018-11-01T04:44:29.392Z,4.86
2018-11-01T04:46:58.200Z,4.85
2018-11-01T04:49:26.984Z,4.71
2018-11-01T04:51:55.630Z,4.80
2018-11-01T04:54:24.715Z,4.88
2018-11-01T04:56:53.234Z,4.82
2018-11-01T04:59:21.892Z,4.66
2018-11-01T05:04:46.368Z,4.73
2018-11-01T05:07:15.147Z,4.61
2018-11-01T05:09:44.019Z,4.72
2018-11-01T05:12:13.014Z,4.56
2018-11-01T05:14:42.106Z,4.64
2018-11-01T05:17:10.954Z,4.51
2018-11-01T05:19:39.897Z,4.67
2018-11-01T05:22:08.829Z,4.74
2018-11-01T05:24:37.716Z,4.71
2018-11-01T05:27:06.983Z,4.65
2018-11-01T05:29:35.667Z,4.58
2018-11-01T05:32:04.746Z,4.80
2018-11-01T05:34:33.438Z,4.78
2018-11-01T05:37:02.325Z,4.89
2018-11-01T05:39:31.045Z,4.74
2018-11-01T05:41:59.938Z,4.31
2018-11-01T05:44:28.666Z,4.37
2018-11-01T05:46:57.370Z,4.29
2018-11-01T05:49:26.034Z,4.30
2018-11-01T05:51:54.871Z,4.30
2018-11-01T05:54:23.941Z,4.17
2018-11-01T05:56:52.722Z,4.14
2018-11-01T05:59:21.695Z,4.14
2018-11-01T06:01:52.379Z,4.19
2018-11-01T06:04:21.019Z,4.14
2018-11-01T06:06:49.766Z,4.14
2018-11-01T06:09:24.849Z,4.06
2018-11-01T06:11:53.713Z,4.12
2018-11-01T06:14:22.635Z,4.30
2018-11-01T06:16:51.436Z,4.29
2018-11-01T06:19:20.083Z,4.37
2018-11-01T06:21:48.834Z,4.44
2018-11-01T06:24:18.080Z,4.42
2018-11-01T06:26:47.056Z,4.49
2018-11-01T06:29:15.893Z,4.67
2018-11-01T06:31:44.647Z,4.63
2018-11-01T06:34:20.727Z,4.58
2018-11-01T06:36:50.691Z,4.65
2018-11-01T06:39:21.703Z,4.82
2018-11-01T06:41:52.067Z,4.94
2018-11-01T06:44:21.012Z,5.04
2018-11-01T06:46:50.119Z,5.01
2018-11-01T06:49:19.860Z,5.17
2018-11-01T06:51:48.925Z,5.52
2018-11-01T06:54:18.050Z,5.57
2018-11-01T06:56:47.481Z,5.62
2018-11-01T06:59:16.762Z,5.53
2018-11-01T07:01:45.490Z,5.69
2018-11-01T07:04:14.298Z,5.81
2018-11-01T07:06:43.082Z,5.74
2018-11-01T07:09:13.545Z,5.76
2018-11-01T07:11:42.773Z,5.84
2018-11-01T07:14:11.843Z,5.82
2018-11-01T07:16:40.606Z,5.87
2018-11-01T07:19:09.832Z,5.95
2018-11-01T07:21:38.475Z,6.16
2018-11-01T07:24:07.365Z,6.31
2018-11-01T07:26:36.351Z,6.53
2018-11-01T07:29:05.368Z,6.51
2018-11-01T07:31:34.341Z,6.53
2018-11-01T07:34:03.195Z,6.59
2018-11-01T07:36:31.934Z,6.72
2018-11-01T07:39:00.721Z,6.82
2018-11-01T07:41:29.986Z,6.82
2018-11-01T07:43:58.759Z,6.66
2018-11-01T07:46:27.566Z,6.60
2018-11-01T07:48:56.267Z,6.76
2018-11-01T07:51:25.097Z,6.78
2018-11-01T07:53:54.102Z,6.98
2018-11-01T07:56:23.312Z,7.20
2018-11-01T07:58:52.119Z,7.23
2018-11-01T08:01:21.030Z,7.50
2018-11-01T08:03:50.003Z,7.47
2018-11-01T08:06:18.794Z,7.51
2018-11-01T08:08:47.697Z,7.80
2018-11-01T08:11:16.680Z,7.92
2018-11-01T08:13:45.412Z,7.96
2018-11-01T08:16:14.302Z,7.96
2018-11-01T08:18:43.794Z,7.93
2018-11-01T08:21:12.754Z,8.07
2018-11-01T08:23:41.327Z,8.05
2018-11-01T08:26:10.290Z,8.01
2018-11-01T08:28:39.026Z,8.04
2018-11-01T08:31:07.747Z,8.05
2018-11-01T08:33:36.723Z,8.15
2018-11-01T08:36:05.863Z,8.15
2018-11-01T08:38:34.603Z,8.26
2018-11-01T08:41:03.360Z,8.17
2018-11-01T08:43:32.265Z,8.43
2018-11-01T08:46:01.206Z,8.57
2018-11-01T08:48:29.971Z,8.47
2018-11-01T08:50:59.131Z,8.50
2018-11-01T08:53:27.911Z,8.58
2018-11-01T08:55:56.689Z,8.72
2018-11-01T08:58:25.563Z,9.04
2018-11-01T09:00:54.611Z,8.89
2018-11-01T09:03:23.385Z,8.86
2018-11-01T09:05:52.073Z,8.92
2018-11-01T09:08:20.875Z,8.99
2018-11-01T09:10:49.647Z,9.25
2018-11-01T09:13:18.358Z,9.69
2018-11-01T09:15:47.143Z,9.70
2018-11-01T09:18:16.121Z,10.26
2018-11-01T09:20:45.009Z,10.73
2018-11-01T09:23:13.684Z,10.53
2018-11-01T09:25:42.631Z,10.37
2018-11-01T09:28:11.307Z,10.98
2018-11-01T09:30:40.563Z,11.05
2018-11-01T09:33:09.368Z,11.32
2018-11-01T09:35:38.139Z,11.47
2018-11-01T09:38:06.951Z,11.68
2018-11-01T09:40:35.733Z,11.33
2018-11-01T09:43:04.814Z,11.05
2018-11-01T09:45:33.443Z,10.90
2018-11-01T09:48:02.372Z,10.73
2018-11-01T09:50:31.195Z,10.73
2018-11-01T09:53:00.084Z,10.56
2018-11-01T09:55:29.431Z,10.35
2018-11-01T09:57:58.223Z,10.16
2018-11-01T10:00:27.229Z,10.26
2018-11-01T10:02:56.130Z,10.75
2018-11-01T10:05:25.135Z,10.91
2018-11-01T10:07:54.124Z,11.00
2018-11-01T10:10:23.955Z,11.13
2018-11-01T10:12:52.777Z,11.53
2018-11-01T10:15:21.485Z,12.00
2018-11-01T10:17:50.479Z,11.83
2018-11-01T10:20:19.198Z,11.61
2018-11-01T10:22:48.034Z,11.34
2018-11-01T10:25:17.084Z,11.20
2018-11-01T10:27:46.044Z,11.30
2018-11-01T10:30:16.718Z,11.45
2018-11-01T10:32:45.930Z,11.51
2018-11-01T10:35:15.448Z,12.17
2018-11-01T10:37:44.316Z,12.02
2018-11-01T10:40:17.559Z,12.01
2018-11-01T10:42:46.313Z,12.09
2018-11-01T10:45:15.662Z,12.16
2018-11-01T10:47:44.828Z,11.87
2018-11-01T10:50:15.697Z,11.92
2018-11-01T10:52:44.560Z,12.19
2018-11-01T10:55:13.963Z,12.00
2018-11-01T10:57:42.861Z,11.83
2018-11-01T11:00:20.092Z,11.88
2018-11-01T11:02:50.197Z,11.92
2018-11-01T11:05:20.158Z,12.02
2018-11-01T11:07:49.450Z,12.17
2018-11-01T11:10:18.563Z,12.49
2018-11-01T11:12:47.230Z,12.28
2018-11-01T11:15:16.082Z,12.23
2018-11-01T11:17:44.825Z,12.31
2018-11-01T11:20:14.040Z,12.49
2018-11-01T11:22:42.745Z,12.46
2018-11-01T11:25:12.613Z,12.39
2018-11-01T11:27:41.712Z,12.06
2018-11-01T11:30:11.192Z,12.13
2018-11-01T11:32:40.020Z,12.23
2018-11-01T11:35:09.737Z,12.34
2018-11-01T11:37:38.504Z,12.39
2018-11-01T11:40:09.023Z,12.32
2018-11-01T11:42:37.848Z,12.37
2018-11-01T11:45:07.510Z,12.17
2018-11-01T11:47:36.223Z,12.36
2018-11-01T11:50:06.066Z,12.31
2018-11-01T11:52:34.777Z,12.36
2018-11-01T11:55:03.460Z,12.26
2018-11-01T11:57:32.926Z,12.22
2018-11-01T12:00:01.968Z,12.09
2018-11-01T12:02:31.408Z,11.95
2018-11-01T12:05:02.965Z,12.06
2018-11-01T12:07:37.663Z,12.15
2018-11-01T12:10:08.611Z,12.25
2018-11-01T12:12:37.367Z,12.08
2018-11-01T12:15:06.537Z,12.07
2018-11-01T12:17:35.363Z,12.22
2018-11-01T12:20:04.439Z,12.30
2018-11-01T12:22:33.972Z,12.29
2018-11-01T12:25:02.843Z,12.19
2018-11-01T12:27:32.179Z,12.25
2018-11-01T12:30:00.870Z,12.22
2018-11-01T12:32:29.942Z,12.19
2018-11-01T12:34:59.389Z,11.94
2018-11-01T12:37:28.306Z,12.14
2018-11-01T12:39:57.414Z,12.16
2018-11-01T12:42:27.981Z,12.10
2018-11-01T12:44:56.965Z,12.12
2018-11-01T12:47:25.964Z,12.10
2018-11-01T12:49:54.906Z,12.13
2018-11-01T12:52:23.711Z,12.05
2018-11-01T12:54:52.347Z,12.13
2018-11-01T12:57:21.102Z,11.95
2018-11-01T12:59:50.057Z,12.01
2018-11-01T13:02:18.932Z,11.79
2018-11-01T13:04:47.753Z,11.84
2018-11-01T13:07:16.469Z,12.07
2018-11-01T13:09:45.523Z,12.10
2018-11-01T13:12:14.454Z,11.84
2018-11-01T13:14:43.263Z,11.82
2018-11-01T13:17:12.026Z,11.85
2018-11-01T13:19:41.320Z,12.02
2018-11-01T13:22:10.059Z,11.85
2018-11-01T13:24:39.138Z,11.98
2018-11-01T13:27:07.928Z,12.02
2018-11-01T13:29:36.678Z,11.78
2018-11-01T13:32:05.783Z,11.78
2018-11-01T13:34:35.584Z,11.80
2018-11-01T13:37:04.355Z,11.67
2018-11-01T13:39:33.566Z,11.74
2018-11-01T13:42:02.625Z,11.74
2018-11-01T13:44:31.449Z,11.70
2018-11-01T13:47:00.227Z,11.88
2018-11-01T13:49:29.016Z,11.77
2018-11-01T13:51:58.219Z,11.80
2018-11-01T13:54:26.940Z,12.02
2018-11-01T13:56:55.707Z,12.02
2018-11-01T13:59:25.306Z,11.95
2018-11-01T14:01:54.775Z,11.73
2018-11-01T14:04:24.028Z,11.84
2018-11-01T14:06:54.319Z,11.92
2018-11-01T14:09:24.338Z,11.74
2018-11-01T14:11:54.280Z,11.84
2018-11-01T14:14:23.886Z,11.87
2018-11-01T14:16:55.676Z,11.85
2018-11-01T14:19:24.819Z,11.67
2018-11-01T14:21:53.650Z,11.73
2018-11-01T14:24:24.926Z,11.58
2018-11-01T14:26:55.477Z,11.71
2018-11-01T14:29:33.448Z,11.68
2018-11-01T14:32:02.463Z,11.83
2018-11-01T14:34:32.695Z,11.92
2018-11-01T14:37:01.751Z,11.89
2018-11-01T14:39:30.433Z,11.87
2018-11-01T14:41:59.271Z,11.93
2018-11-01T14:44:28.092Z,11.84
2018-11-01T14:46:56.845Z,11.78
2018-11-01T14:49:25.629Z,11.79
2018-11-01T14:51:54.580Z,11.80
2018-11-01T14:54:24.452Z,11.69
2018-11-01T14:56:53.866Z,11.75
2018-11-01T14:59:23.360Z,11.71
2018-11-01T15:01:50.508Z,11.55
2018-11-01T15:04:19.384Z,11.50
2018-11-01T15:06:48.872Z,11.34
2018-11-01T15:09:17.713Z,11.22
2018-11-01T15:11:46.557Z,11.00
2018-11-01T15:14:15.435Z,11.00
2018-11-01T15:16:44.468Z,11.05
2018-11-01T15:19:13.376Z,10.93
2018-11-01T15:21:42.232Z,10.87
2018-11-01T15:24:10.979Z,10.68
2018-11-01T15:26:40.205Z,10.72
2018-11-01T15:29:09.850Z,10.93
2018-11-01T15:31:38.632Z,11.04
2018-11-01T15:34:08.223Z,10.98
2018-11-01T15:36:39.104Z,10.71
2018-11-01T15:39:10.231Z,10.59
2018-11-01T15:41:39.090Z,10.53
2018-11-01T15:44:08.175Z,10.51
2018-11-01T15:46:37.256Z,10.80
2018-11-01T15:49:06.920Z,10.62
2018-11-01T15:51:35.627Z,10.57
2018-11-01T15:54:04.585Z,10.50
2018-11-01T15:56:33.445Z,10.42
2018-11-01T15:59:02.335Z,10.37
2018-11-01T16:01:31.163Z,10.47
2018-11-01T16:04:00.080Z,10.47
2018-11-01T16:06:29.118Z,10.10
2018-11-01T16:08:59.236Z,10.05
2018-11-01T16:11:28.797Z,10.13
2018-11-01T16:13:57.515Z,10.34
2018-11-01T16:16:26.375Z,10.51
2018-11-01T16:18:55.115Z,10.64
2018-11-01T16:21:24.311Z,10.75
2018-11-01T16:23:53.047Z,10.65
2018-11-01T16:26:21.798Z,10.62
2018-11-01T16:28:50.646Z,10.66
2018-11-01T16:31:19.370Z,10.73
2018-11-01T16:33:48.420Z,10.75
2018-11-01T16:36:17.480Z,10.63
2018-11-01T16:38:46.670Z,10.76
2018-11-01T16:41:15.363Z,10.95
2018-11-01T16:43:44.211Z,10.59
2018-11-01T16:46:13.242Z,10.39
2018-11-01T16:48:42.404Z,10.52
2018-11-01T16:51:11.457Z,10.48
2018-11-01T16:53:44.206Z,10.32
2018-11-01T16:56:15.511Z,10.54
2018-11-01T16:58:44.119Z,10.51
2018-11-01T17:01:12.884Z,10.38
2018-11-01T17:03:41.701Z,10.44
2018-11-01T17:06:10.725Z,10.66
2018-11-01T17:09:42.100Z,10.52
2018-11-01T17:12:11.128Z,10.51
2018-11-01T17:14:40.222Z,10.50
2018-11-01T17:17:09.157Z,10.58
2018-11-01T17:19:44.810Z,10.56
2018-11-01T17:22:13.707Z,10.41
2018-11-01T17:24:42.547Z,10.55
2018-11-01T17:27:11.468Z,10.55
2018-11-01T17:29:40.118Z,10.31
2018-11-01T17:32:09.735Z,10.24
2018-11-01T17:34:40.136Z,9.88
2018-11-01T17:37:09.888Z,9.74
2018-11-01T17:39:38.752Z,9.69
2018-11-01T17:42:08.384Z,9.63
2018-11-01T17:44:37.153Z,9.57
2018-11-01T17:47:06.075Z,9.46
2018-11-01T17:49:34.940Z,9.40
2018-11-01T17:52:03.775Z,9.34
2018-11-01T17:54:32.915Z,9.33
2018-11-01T17:57:01.802Z,9.22
2018-11-01T17:59:30.607Z,9.14
2018-11-01T18:01:59.615Z,9.15
2018-11-01T18:04:28.473Z,9.10
2018-11-01T18:06:57.301Z,9.12
2018-11-01T18:09:26.419Z,8.97
2018-11-01T18:11:55.263Z,8.94
2018-11-01T18:14:24.177Z,9.14
2018-11-01T18:16:53.017Z,9.16
2018-11-01T18:19:22.096Z,8.96
2018-11-01T18:21:53.923Z,8.85
2018-11-01T18:24:23.005Z,8.87
2018-11-01T18:26:52.189Z,8.78
2018-11-01T18:29:21.256Z,8.71
2018-11-01T18:31:50.203Z,8.66
2018-11-01T18:34:19.248Z,8.67
2018-11-01T18:36:48.152Z,8.59
2018-11-01T18:39:17.021Z,8.55
2018-11-01T18:41:45.722Z,8.58
2018-11-01T18:44:14.616Z,8.54
2018-11-01T18:46:43.451Z,8.50
2018-11-01T18:49:12.477Z,8.54
2018-11-01T18:51:41.449Z,8.44
2018-11-01T18:54:10.431Z,8.34
2018-11-01T18:56:39.544Z,8.37
2018-11-01T18:59:08.783Z,8.36
2018-11-01T19:01:37.611Z,8.31
2018-11-01T19:04:06.777Z,8.30
2018-11-01T19:06:35.583Z,8.26
2018-11-01T19:09:05.551Z,8.27
2018-11-01T19:11:34.486Z,8.49
2018-11-01T19:14:03.317Z,8.44
2018-11-01T19:16:32.280Z,8.38
2018-11-01T19:19:01.131Z,8.56
2018-11-01T19:21:29.950Z,8.18
2018-11-01T19:23:58.757Z,8.09
2018-11-01T19:26:27.897Z,8.03
2018-11-01T19:28:56.557Z,8.24
2018-11-01T19:31:25.295Z,8.15
2018-11-01T19:33:54.329Z,7.86
2018-11-01T19:36:23.102Z,7.87
2018-11-01T19:38:52.077Z,8.22
2018-11-01T19:41:21.366Z,7.82
2018-11-01T19:43:50.112Z,7.97
2018-11-01T19:46:19.323Z,7.74
2018-11-01T19:48:48.202Z,7.70
2018-11-01T19:51:17.153Z,7.57
2018-11-01T19:53:46.510Z,7.51
2018-11-01T19:56:15.209Z,7.50
2018-11-01T19:58:44.110Z,7.46
2018-11-01T20:01:12.966Z,7.69
2018-11-01T20:03:41.754Z,7.53
2018-11-01T20:06:10.630Z,7.50
2018-11-01T20:08:39.547Z,7.34
2018-11-01T20:11:08.311Z,7.42
2018-11-01T20:13:37.107Z,7.34
2018-11-01T20:16:06.096Z,7.33
2018-11-01T20:18:34.919Z,7.48
2018-11-01T20:21:03.587Z,7.34
2018-11-01T20:23:32.264Z,7.38
2018-11-01T20:26:01.195Z,7.16
2018-11-01T20:28:30.376Z,7.16
2018-11-01T20:30:59.308Z,7.32
2018-11-01T20:33:28.101Z,7.32
2018-11-01T20:35:56.880Z,7.58
2018-11-01T20:38:25.806Z,7.80
2018-11-01T20:40:54.578Z,7.73
2018-11-01T20:43:23.729Z,7.76
2018-11-01T20:45:52.397Z,7.82
2018-11-01T20:48:21.148Z,7.65
2018-11-01T20:50:56.615Z,7.51
2018-11-01T20:53:25.370Z,7.78
2018-11-01T20:55:54.023Z,7.53
2018-11-01T20:58:22.653Z,7.70
2018-11-01T21:00:51.479Z,7.49
2018-11-01T21:03:20.370Z,7.43
2018-11-01T21:05:49.172Z,7.26
2018-11-01T21:08:18.307Z,7.38
2018-11-01T21:10:47.378Z,7.34
2018-11-01T21:13:16.548Z,7.27
2018-11-01T21:15:45.357Z,7.14
2018-11-01T21:18:14.530Z,7.23
2018-11-01T21:20:43.313Z,7.26
2018-11-01T21:23:12.100Z,7.29
2018-11-01T21:25:41.628Z,6.93
2018-11-01T21:28:11.208Z,7.01
2018-11-01T21:30:40.125Z,6.99
2018-11-01T21:33:09.003Z,6.88
2018-11-01T21:35:37.883Z,6.76
2018-11-01T21:38:07.411Z,6.76
2018-11-01T21:40:36.301Z,6.67
2018-11-01T21:43:05.580Z,6.62
2018-11-01T21:45:34.335Z,6.67
2018-11-01T21:48:04.408Z,6.87
2018-11-01T21:50:33.563Z,6.87
2018-11-01T21:53:03.059Z,6.92
2018-11-01T21:55:32.006Z,6.86
2018-11-01T21:58:01.097Z,6.97
2018-11-01T22:00:30.194Z,6.87
2018-11-01T22:02:59.671Z,6.83
2018-11-01T22:05:28.355Z,6.58
2018-11-01T22:07:57.494Z,6.51
2018-11-01T22:10:26.168Z,6.46
2018-11-01T22:12:55.276Z,6.39
2018-11-01T22:15:24.231Z,6.46
2018-11-01T22:17:53.094Z,6.28
2018-11-01T22:20:22.358Z,6.13
2018-11-01T22:22:51.425Z,6.14
2018-11-01T22:25:20.326Z,6.13
2018-11-01T22:27:49.708Z,6.12
2018-11-01T22:30:19.134Z,6.19
2018-11-01T22:32:48.460Z,6.18
2018-11-01T22:35:17.627Z,5.98
2018-11-01T22:37:46.928Z,5.90
2018-11-01T22:40:15.916Z,6.10
2018-11-01T22:42:45.540Z,5.98
2018-11-01T22:45:14.679Z,5.85
2018-11-01T22:47:43.703Z,5.74
2018-11-01T22:50:12.669Z,5.66
2018-11-01T22:52:41.979Z,5.66
2018-11-01T22:55:11.880Z,5.86
2018-11-01T22:57:40.907Z,5.61
2018-11-01T23:00:13.088Z,5.81
2018-11-01T23:02:42.046Z,5.49
2018-11-01T23:05:11.271Z,5.61
2018-11-01T23:07:46.722Z,5.47
2018-11-01T23:10:16.294Z,5.43
2018-11-01T23:12:45.307Z,5.38
2018-11-01T23:15:14.824Z,5.32
2018-11-01T23:17:44.175Z,5.27
2018-11-01T23:20:13.461Z,5.29
2018-11-01T23:22:43.138Z,5.41
2018-11-01T23:25:12.491Z,5.22
2018-11-01T23:27:41.532Z,5.26
2018-11-01T23:30:10.739Z,5.34
2018-11-01T23:32:39.532Z,5.13
2018-11-01T23:35:08.601Z,5.15
2018-11-01T23:37:42.566Z,5.19
2018-11-01T23:40:16.757Z,5.14
2018-11-01T23:42:50.975Z,5.16
2018-11-01T23:45:24.849Z,5.03
2018-11-01T23:47:58.744Z,4.99
2018-11-01T23:51:05.166Z,4.99
2018-11-01T23:53:42.835Z,5.08
2018-11-01T23:56:12.681Z,5.30
2018-11-01T23:58:41.617Z,5.39
